M I D A S
Marine Information and Data Acquisition System
Tripno 1899 of the Zeeleeuw from 2010-06-11 06:57:26 to 2010-06-11 10:32:55
Back to CruiseResearch ActivitiesStationsMapUnderway DataData graphs

EquipmentUnitsComment
TimeDGPSUTC
LatitudeDGPSDM.mWGS84
LongitudeDGPSDM.mWGS84
TemperatureSBE03/SBE38deg celciusITS90
ConductivitySBE21S/mITS90
SalinitySBE21 Practical Salinity Units
ChlorophylAChelsea fluorimeterg/lCalibrated in Aceton
Missing or incorrect values are displayed as -999
Sea surface data collected by the RV Zeeleeuw from 2010-06-11 06:54:28 to 2010-06-11 11:08:51
Time Latitude Longitude Temperature Conductivity Salinity ChlorophylA
2010-06-11 06:55:37 51°13.683 2°55.865 19.8939 4.254079 31.413812 -0.965744
2010-06-11 06:56:35 51°13.688 2°55.771 19.8969 4.253973 31.412942 -0.965744
2010-06-11 06:57:33 51°13.688 2°55.748 19.9083 4.254184 31.413597 -0.965744
2010-06-11 06:58:33 51°13.71 2°55.744 19.9305 4.254184 31.414139 -0.965744
2010-06-11 06:59:33 51°13.776 2°55.675 19.8259 4.254395 31.415336 -0.965744
2010-06-11 07:00:33 51°13.89 2°55.58 19.8784 4.25429 31.415009 -0.965744
2010-06-11 07:01:33 51°14.02 2°55.487 19.9043 4.254184 31.412512 -1.000568
2010-06-11 07:02:33 51°14.158 2°55.385 19.8734 4.254501 31.413495 -1.000568
2010-06-11 07:03:33 51°14.293 2°55.263 19.8772 4.253868 31.408277 -0.965744
2010-06-11 07:04:33 51°14.429 2°55.132 19.8099 4.254923 31.415889 -1.035392
2010-06-11 07:05:32 51°14.574 2°54.962 19.8307 4.254606 31.414906 -0.965744
2010-06-11 07:06:32 51°14.654 2°54.664 19.8358 4.254817 31.417188 -0.965744
2010-06-11 07:07:32 51°14.554 2°54.36 19.7903 4.253657 31.401118 -1.000568
2010-06-11 07:08:33 51°14.402 2°54.069 19.7908 4.254395 31.407746 -0.965744
2010-06-11 07:09:32 51°14.267 2°53.771 19.8092 4.25334 31.397426 -1.000568
2010-06-11 07:10:32 51°14.128 2°53.462 19.8128 4.256084 31.421116 -1.000568
2010-06-11 07:11:32 51°13.989 2°53.15 19.8208 4.255028 31.411879 -0.965744
2010-06-11 07:12:32 51°13.85 2°52.84 19.8232 4.25545 31.415356 -0.965744
2010-06-11 07:13:33 51°13.707 2°52.525 19.83 4.253234 31.397098 -0.965744
2010-06-11 07:14:32 51°13.569 2°52.22 19.8185 4.253762 31.401987 -0.965744
2010-06-11 07:15:32 51°13.432 2°51.92 19.8249 4.254923 31.412635 -0.965744
2010-06-11 07:16:32 51°13.32 2°51.68 19.8567 4.252918 31.395032 -0.965744
2010-06-11 07:17:32 51°13.224 2°51.469 19.8655 4.253446 31.401546 -1.000568
2010-06-11 07:18:32 51°13.181 2°51.32 19.8681 4.253129 31.39948 -0.965744
2010-06-11 07:19:32 51°13.208 2°51.227 19.8669 4.254079 31.406763 -1.000568
2010-06-11 07:20:32 51°13.262 2°51.259 19.8833 4.253551 31.404042 -0.93092
2010-06-11 07:21:32 51°13.341 2°51.393 19.9032 4.253868 31.403398 -0.965744
2010-06-11 07:22:32 51°13.401 2°51.476 19.915 4.25334 31.402303 -0.965744
2010-06-11 07:23:32 51°13.429 2°51.462 19.9331 4.253551 31.404042 -1.000568
2010-06-11 07:24:33 51°13.423 2°51.447 19.9466 4.253446 31.40263 -0.965744
2010-06-11 07:25:32 51°13.416 2°51.436 19.9644 4.253762 31.404697 -0.965744
2010-06-11 07:26:32 51°13.408 2°51.427 19.9766 4.252812 31.397413 -0.93092
2010-06-11 07:27:32 51°13.398 2°51.419 19.9935 4.253868 31.405566 -1.000568
2010-06-11 07:28:32 51°13.388 2°51.412 20.0084 4.253023 31.39861 -0.93092
2010-06-11 07:29:32 51°13.377 2°51.404 20.0226 4.253129 31.398938 -0.965744
2010-06-11 07:30:32 51°13.369 2°51.395 20.0408 4.253129 31.39948 -1.000568
2010-06-11 07:31:32 51°13.362 2°51.387 20.0544 4.253023 31.39861 -0.965744
2010-06-11 07:32:32 51°13.373 2°51.357 20.0739 4.254501 31.410784 -0.965744
2010-06-11 07:33:32 51°13.372 2°51.277 20.0913 4.252179 31.391654 -0.965744
2010-06-11 07:34:32 51°13.328 2°51.212 20.1091 4.253023 31.397526 -0.93092
2010-06-11 07:35:33 51°13.266 2°51.207 20.1203 4.252707 31.394376 -0.965744
2010-06-11 07:36:32 51°13.206 2°51.205 20.1424 4.252707 31.396002 -0.965744
2010-06-11 07:37:32 51°13.148 2°51.201 20.1609 4.25239 31.393393 -0.965744
2010-06-11 07:38:32 51°13.091 2°51.194 20.1757 4.252496 31.393721 -0.965744
2010-06-11 07:39:32 51°13.028 2°51.177 20.1972 4.252285 31.39144 -1.000568
2010-06-11 07:40:32 51°12.967 2°51.131 20.2113 4.251546 31.386438 -0.965744
2010-06-11 07:41:32 51°12.913 2°51.063 20.2315 4.251863 31.39013 -0.965744
2010-06-11 07:42:32 51°12.87 2°50.983 20.2572 4.25239 31.394477 -0.965744
2010-06-11 07:43:32 51°12.834 2°50.897 20.2759 4.252285 31.395775 -1.000568
2010-06-11 07:44:32 51°12.797 2°50.812 20.2937 4.251968 31.393708 -0.93092
2010-06-11 07:45:32 51°12.763 2°50.735 20.316 4.252179 31.395989 -1.000568
2010-06-11 07:46:32 51°12.731 2°50.663 20.3372 4.252179 31.398157 -1.000568
2010-06-11 07:47:32 51°12.699 2°50.586 20.3554 4.251019 31.389133 -0.93092
2010-06-11 07:48:32 51°12.67 2°50.502 20.373 4.251019 31.389133 -0.93092
2010-06-11 07:49:32 51°12.641 2°50.42 20.3976 4.250597 31.386739 -1.000568
2010-06-11 07:50:32 51°12.612 2°50.341 20.4167 4.250913 31.389889 -0.965744
2010-06-11 07:51:33 51°12.583 2°50.262 20.4372 4.250174 31.38326 -0.93092
2010-06-11 07:52:32 51°12.554 2°50.185 20.459 4.250702 31.38815 -1.000568
2010-06-11 07:53:33 51°12.524 2°50.106 20.4794 4.250174 31.383802 -1.000568
2010-06-11 07:54:32 51°12.494 2°50.027 20.4988 4.249225 31.377059 -0.965744
2010-06-11 07:55:33 51°12.464 2°49.943 20.506 4.249647 31.381079 -0.965744
2010-06-11 07:56:32 51°12.435 2°49.863 20.5286 4.24933 31.37847 -1.000568
2010-06-11 07:57:33 51°12.405 2°49.778 20.5539 4.249647 31.380537 -1.000568
2010-06-11 07:58:32 51°12.375 2°49.694 20.5826 4.248803 31.374663 -0.965744
2010-06-11 07:59:32 51°12.342 2°49.611 20.6009 4.248592 31.372924 -0.965744
2010-06-11 08:00:33 51°12.311 2°49.527 20.6192 4.249541 31.381293 -0.965744
2010-06-11 08:01:32 51°12.28 2°49.448 20.6414 4.249119 31.377814 -0.965744
2010-06-11 08:02:33 51°12.251 2°49.365 20.6626 4.249225 31.378684 -1.000568
2010-06-11 08:03:32 51°12.236 2°49.279 20.6864 4.249436 31.380423 -1.000568
2010-06-11 08:04:33 51°12.237 2°49.194 20.7122 4.248275 31.372482 -1.000568
2010-06-11 08:05:32 51°12.245 2°49.112 20.7275 4.248275 31.373565 -0.965744
2010-06-11 08:06:32 51°12.252 2°49.032 20.7513 4.248697 31.376503 -0.965744
2010-06-11 08:07:32 51°12.256 2°48.952 20.7647 4.249014 31.379654 -0.965744
2010-06-11 08:08:32 51°12.259 2°48.87 20.7895 4.247536 31.368561 -0.965744
2010-06-11 08:09:32 51°12.262 2°48.784 20.8066 4.248697 31.37867 -0.965744
2010-06-11 08:10:32 51°12.266 2°48.7 20.8282 4.247853 31.372795 -0.965744
2010-06-11 08:11:32 51°12.272 2°48.622 20.8476 4.246692 31.364853 -1.000568
2010-06-11 08:12:32 51°12.277 2°48.545 20.8698 4.248486 31.379098 -0.965744
2010-06-11 08:13:33 51°12.284 2°48.465 20.89 4.248697 31.381922 -0.965744
2010-06-11 08:14:32 51°12.292 2°48.388 20.9108 4.248275 31.378984 -1.000568
2010-06-11 08:15:32 51°12.298 2°48.309 20.9268 4.247748 31.375718 -0.965744
2010-06-11 08:16:32 51°12.294 2°48.229 20.9454 4.247009 31.369087 -0.965744
2010-06-11 08:17:32 51°12.284 2°48.15 20.9608 4.246587 31.367233 -1.035392
2010-06-11 08:18:33 51°12.273 2°48.071 20.9855 4.246376 31.367119 -0.965744
2010-06-11 08:19:32 51°12.249 2°48.002 21.0013 4.247115 31.373751 -0.965744
2010-06-11 08:20:33 51°12.208 2°47.956 21.0245 4.246692 31.369187 -1.000568
2010-06-11 08:21:32 51°12.158 2°47.935 21.0403 4.246481 31.368531 -1.000568
2010-06-11 08:22:32 51°12.103 2°47.926 21.0602 4.246903 31.372011 -0.965744
2010-06-11 08:23:32 51°12.048 2°47.912 21.0803 4.245954 31.365265 -0.965744
2010-06-11 08:24:32 51°11.996 2°47.891 21.0981 4.245426 31.36254 -1.000568
2010-06-11 08:25:32 51°11.947 2°47.863 21.1238 4.246692 31.372439 -1.000568
2010-06-11 08:26:32 51°11.901 2°47.829 21.1403 4.244582 31.357748 -1.000568
2010-06-11 08:27:32 51°11.86 2°47.78 21.1637 4.244899 31.361441 -0.965744
2010-06-11 08:28:32 51°11.826 2°47.716 21.1852 4.245426 31.366334 -1.000568
2010-06-11 08:29:33 51°11.809 2°47.66 21.2024 4.244899 31.363609 -0.965744
2010-06-11 08:30:32 51°11.804 2°47.626 21.2219 4.245532 31.369914 -1.000568
2010-06-11 08:31:32 51°11.836 2°47.481 21.2318 4.24416 31.361312 -0.965744
2010-06-11 08:32:32 51°11.862 2°47.255 21.2522 4.244371 31.363594 -1.000568
2010-06-11 08:33:32 51°11.848 2°47.131 21.27 4.244477 31.363922 -0.965744
2010-06-11 08:34:33 51°11.826 2°47.068 21.2897 4.243316 31.354892 -0.965744
2010-06-11 08:35:32 51°11.805 2°47.039 21.3063 4.243949 31.360655 -1.000568
2010-06-11 08:36:33 51°11.787 2°47.008 21.321 4.244055 31.36261 -1.000568
2010-06-11 08:37:32 51°11.772 2°46.971 21.3386 4.243633 31.359671 -0.965744
2010-06-11 08:38:33 51°11.754 2°46.916 21.3576 4.242894 31.354121 -0.965744
2010-06-11 08:39:32 51°11.729 2°46.781 21.3703 4.242999 31.355533 -1.000568
2010-06-11 08:40:32 51°11.704 2°46.512 21.3895 4.242894 31.355205 -0.965744
2010-06-11 08:41:32 51°11.688 2°46.181 21.4095 4.242894 31.357373 -0.965744
2010-06-11 08:42:32 51°11.672 2°45.847 21.4287 4.241417 31.34573 -0.965744
2010-06-11 08:43:33 51°11.654 2°45.507 21.445 4.242788 31.356502 -0.965744
2010-06-11 08:44:32 51°11.636 2°45.18 21.463 4.241944 31.350082 -0.965744
2010-06-11 08:45:33 51°11.619 2°44.844 21.4855 4.240467 31.338981 -0.965744
2010-06-11 08:46:32 51°11.601 2°44.521 21.4993 4.241944 31.350624 -1.000568
2010-06-11 08:47:32 51°11.583 2°44.195 21.5171 4.243211 31.36161 -0.965744
2010-06-11 08:48:32 51°11.564 2°43.873 21.5337 4.243211 31.363237 -0.965744
2010-06-11 08:49:32 51°11.545 2°43.553 21.5511 4.2411 31.346913 -1.000568
2010-06-11 08:50:32 51°11.524 2°43.235 21.5679 4.239623 31.334185 -0.965744
2010-06-11 08:51:32 51°11.504 2°42.916 21.5843 4.239623 31.335269 -1.000568
2010-06-11 08:52:32 51°11.483 2°42.613 21.6015 4.240678 31.345057 -1.000568
2010-06-11 08:53:32 51°11.466 2°42.39 21.6189 4.239517 31.337108 -0.965744
2010-06-11 08:54:33 51°11.442 2°42.252 21.631 4.240573 31.34527 -0.965744
2010-06-11 08:55:32 51°11.398 2°42.159 21.6451 4.241311 31.352448 -1.000568
2010-06-11 08:56:33 51°11.357 2°42.08 21.6596 4.240256 31.343743 -0.965744
2010-06-11 08:57:32 51°11.324 2°42.024 21.6731 4.240467 31.346026 -0.965744
2010-06-11 08:58:32 51°11.295 2°41.975 21.6857 4.240362 31.345155 -0.93092
2010-06-11 08:59:32 51°11.267 2°41.934 21.6986 4.240573 31.34798 -0.965744
2010-06-11 09:00:32 51°11.239 2°41.895 21.7131 4.240467 31.34711 -1.000568
2010-06-11 09:01:32 51°11.212 2°41.859 21.7265 4.239623 31.340688 -1.000568
2010-06-11 09:02:32 51°11.187 2°41.821 21.7402 4.240784 31.35189 -1.000568
2010-06-11 09:03:32 51°11.162 2°41.785 21.7552 4.23899 31.33709 -1.000568
2010-06-11 09:04:32 51°11.136 2°41.75 21.7633 4.23994 31.347094 -0.965744
2010-06-11 09:05:32 51°11.111 2°41.716 21.7773 4.239306 31.342412 -1.000568
2010-06-11 09:06:32 51°11.085 2°41.682 21.7871 4.238462 31.337073 -1.000568
2010-06-11 09:07:32 51°11.06 2°41.646 21.7975 4.238884 31.340556 -1.000568
2010-06-11 09:08:32 51°11.036 2°41.611 21.8102 4.239412 31.345452 -0.965744
2010-06-11 09:09:32 51°11.012 2°41.576 21.8243 4.238568 31.340112 -0.965744
2010-06-11 09:10:32 51°10.988 2°41.542 21.8315 4.239095 31.344466 -1.000568
2010-06-11 09:11:32 51°10.966 2°41.509 21.8446 4.237935 31.337056 -0.965744
2010-06-11 09:12:33 51°10.945 2°41.477 21.8542 4.238568 31.342281 -1.000568
2010-06-11 09:13:32 51°10.924 2°41.446 21.8625 4.237618 31.335528 -1.000568
2010-06-11 09:14:33 51°10.903 2°41.412 21.8782 4.237935 31.338683 -1.000568
2010-06-11 09:15:32 51°10.881 2°41.38 21.8868 4.237513 31.336826 -0.965744
2010-06-11 09:16:32 51°10.859 2°41.347 21.8976 4.23804 31.342807 -0.965744
2010-06-11 09:17:32 51°10.836 2°41.316 21.9164 4.236985 31.333556 -1.000568
2010-06-11 09:18:32 51°10.815 2°41.285 21.9295 4.23688 31.33377 -0.965744
2010-06-11 09:19:32 51°10.793 2°41.255 21.9389 4.236352 31.3305 -0.965744
2010-06-11 09:20:32 51°10.775 2°41.221 21.9471 4.236985 31.33681 -0.965744
2010-06-11 09:21:32 51°10.765 2°41.179 21.9486 4.236669 31.335824 -0.965744
2010-06-11 09:22:32 51°10.764 2°41.134 21.9586 4.236669 31.336366 -0.965744
2010-06-11 09:23:32 51°10.77 2°41.088 21.9707 4.236458 31.336251 -0.965744
2010-06-11 09:24:32 51°10.778 2°41.039 21.9841 4.238252 31.352144 -1.000568
2010-06-11 09:25:32 51°10.785 2°40.99 21.9873 4.236669 31.340705 -1.000568
2010-06-11 09:26:32 51°10.793 2°40.94 22.0047 4.235719 31.334492 -0.965744
2010-06-11 09:27:32 51°10.801 2°40.893 22.0122 4.234242 31.322839 -1.000568
2010-06-11 09:28:32 51°10.808 2°40.847 22.0173 4.234769 31.327737 -0.965744
2010-06-11 09:29:32 51°10.817 2°40.803 22.028 4.235719 31.33612 -0.965744
2010-06-11 09:30:33 51°10.823 2°40.756 22.0527 4.23593 31.337862 -0.965744
2010-06-11 09:31:32 51°10.827 2°40.709 22.0482 4.235719 31.337205 -1.000568
2010-06-11 09:32:32 51°10.833 2°40.662 22.0652 4.235192 31.334476 -1.000568
2010-06-11 09:33:32 51°10.841 2°40.613 22.0774 4.236985 31.348745 -0.965744
2010-06-11 09:34:32 51°10.847 2°40.564 22.08 4.234242 31.328262 -0.965744
2010-06-11 09:35:32 51°10.835 2°40.516 22.0969 4.233714 31.323906 -1.000568
2010-06-11 09:36:32 51°10.813 2°40.47 22.0938 4.234453 31.330547 -0.965744
2010-06-11 09:37:32 51°10.791 2°40.423 22.0997 4.234453 31.33109 -1.000568
2010-06-11 09:38:32 51°10.77 2°40.374 22.121 4.234347 31.330761 -0.965744
2010-06-11 09:39:32 51°10.749 2°40.324 22.1173 4.23287 31.32019 -0.965744
2010-06-11 09:40:32 51°10.727 2°40.276 22.133 4.235086 31.338488 -1.000568
2010-06-11 09:41:32 51°10.705 2°40.232 22.134 4.233187 31.323889 -1.000568
2010-06-11 09:42:32 51°10.685 2°40.188 22.1436 4.232343 31.318545 -1.000568
2010-06-11 09:43:32 51°10.668 2°40.143 22.1516 4.234242 31.33423 -1.000568
2010-06-11 09:44:32 51°10.65 2°40.102 22.1602 4.233292 31.327473 -1.000568
2010-06-11 09:45:32 51°10.634 2°40.061 22.1766 4.233398 31.329972 -1.000568
2010-06-11 09:46:32 51°10.617 2°40.021 22.1791 4.233187 31.328229 -0.965744
2010-06-11 09:47:32 51°10.601 2°39.98 22.1928 4.231182 31.312757 -0.965744
2010-06-11 09:48:32 51°10.583 2°39.939 22.1892 4.232132 31.323312 -0.965744
2010-06-11 09:49:32 51°10.564 2°39.898 22.204 4.233503 31.334643 -0.965744
2010-06-11 09:50:32 51°10.491 2°39.876 22.1936 4.232237 31.32744 -0.965744
2010-06-11 09:51:32 51°10.439 2°40.086 22.2649 4.231076 31.314055 -1.000568
2010-06-11 09:52:32 51°10.407 2°40.429 22.2733 4.231182 31.317639 -1.000568
2010-06-11 09:53:32 51°10.351 2°40.791 22.2685 4.232343 31.326683 -0.965744
2010-06-11 09:54:32 51°10.279 2°41.151 22.2755 4.230654 31.312739 -1.000568
2010-06-11 09:55:32 51°10.211 2°41.516 22.242 4.235086 31.352605 -0.965744
2010-06-11 09:56:32 51°10.149 2°41.886 22.2576 4.231288 31.323394 -0.93092
2010-06-11 09:57:32 51°10.137 2°42.257 22.2801 4.230866 31.322621 -0.965744
2010-06-11 09:58:32 51°10.167 2°42.529 22.2509 4.232554 31.338742 -0.965744
2010-06-11 09:59:32 51°10.193 2°42.736 22.2549 4.230655 31.32522 -1.000568
2010-06-11 10:00:32 51°10.203 2°42.816 22.2534 4.22981 31.319331 -0.965744
2010-06-11 10:01:35 51°10.194 2°42.846 22.2532 4.229494 31.319429 -0.965744
2010-06-11 10:02:34 51°10.19 2°42.879 22.2737 4.230022 31.324875 -0.965744
2010-06-11 10:03:32 51°10.19 2°42.92 22.2644 4.230127 31.327376 -0.965744
2010-06-11 10:04:32 51°10.191 2°42.97 22.278 4.230022 31.328134 -0.965744
2010-06-11 10:05:32 51°10.195 2°43.021 22.298 4.228966 31.320499 -1.000568
2010-06-11 10:06:32 51°10.199 2°43.074 22.2878 4.229178 31.325502 -0.965744
2010-06-11 10:07:32 51°10.203 2°43.127 22.2855 4.228544 31.320812 -1.000568
2010-06-11 10:08:32 51°10.205 2°43.178 22.293 4.228544 31.321898 -0.965744
2010-06-11 10:09:32 51°10.206 2°43.23 22.3145 4.228228 31.320911 -0.965744
2010-06-11 10:10:32 51°10.208 2°43.282 22.3116 4.228333 31.32287 -1.000568
2010-06-11 10:11:32 51°10.21 2°43.335 22.3066 4.226751 31.314674 -1.000568
2010-06-11 10:12:32 51°10.229 2°43.41 22.3089 4.227067 31.318377 -1.000568
2010-06-11 10:13:32 51°10.289 2°43.522 22.3262 4.228545 31.330591 -1.000568
2010-06-11 10:14:32 51°10.397 2°43.697 22.3306 4.226962 31.321308 -1.000568
2010-06-11 10:15:33 51°10.524 2°43.909 22.3515 4.225062 31.30669 -1.000568
2010-06-11 10:16:32 51°10.633 2°44.143 22.3669 4.225168 31.310822 -0.965744
2010-06-11 10:17:32 51°10.742 2°44.385 22.3596 4.226962 31.3262 -1.000568
2010-06-11 10:18:32 51°10.854 2°44.626 22.3647 4.22559 31.315399 -0.965744
2010-06-11 10:19:32 51°10.965 2°44.866 22.3686 4.224746 31.310048 -1.000568
2010-06-11 10:20:32 51°11.079 2°45.107 22.375 4.22348 31.299577 -1.000568
2010-06-11 10:21:32 51°11.192 2°45.35 22.4088 4.224324 31.308188 -1.000568
2010-06-11 10:22:32 51°11.299 2°45.601 22.3931 4.226012 31.322694 -1.000568
2010-06-11 10:23:32 51°11.402 2°45.857 22.4249 4.223796 31.305454 -1.000568
2010-06-11 10:24:32 51°11.5 2°46.116 22.3952 4.223796 31.306541 -1.000568
2010-06-11 10:25:32 51°11.588 2°46.386 22.4282 4.224007 31.30883 -1.000568
2010-06-11 10:26:32 51°11.683 2°46.651 22.4236 4.224113 31.31079 -1.000568
2010-06-11 10:27:32 51°11.778 2°46.915 22.4016 4.224008 31.31046 -1.000568
2010-06-11 10:28:32 51°11.874 2°47.18 22.4445 4.223691 31.307842 -1.000568
2010-06-11 10:29:32 51°11.97 2°47.445 22.4447 4.22253 31.299328 -0.965744
2010-06-11 10:30:32 51°12.067 2°47.71 22.4368 4.22253 31.299871 -1.000568
2010-06-11 10:31:32 51°12.164 2°47.975 22.4493 4.223374 31.307397 -1.000568
2010-06-11 10:32:32 51°12.261 2°48.24 22.4608 4.223691 31.311647 -0.965744
2010-06-11 10:33:32 51°12.359 2°48.505 22.466 4.222214 31.298883 -1.000568
2010-06-11 10:34:32 51°12.457 2°48.771 22.4932 4.222847 31.30575 -1.000568
2010-06-11 10:35:32 51°12.556 2°49.036 22.4684 4.22253 31.301502 -0.965744
2010-06-11 10:36:32 51°12.655 2°49.302 22.4984 4.222214 31.3016 -0.965744
2010-06-11 10:37:32 51°12.755 2°49.569 22.5092 4.221792 31.298109 -0.965744
2010-06-11 10:38:32 51°12.855 2°49.837 22.5046 4.221581 31.296906 -0.965744
2010-06-11 10:39:32 51°12.955 2°50.106 22.5087 4.222847 31.307925 -0.965744
2010-06-11 10:40:32 51°13.057 2°50.376 22.318 4.22137 31.29516 -0.965744
2010-06-11 10:41:32 51°13.158 2°50.647 22.3885 4.220842 31.291339 -0.965744
2010-06-11 10:42:32 51°13.26 2°50.918 22.4017 4.222003 31.302028 -0.965744
2010-06-11 10:43:32 51°13.364 2°51.188 22.4055 4.22253 31.306937 -0.965744
2010-06-11 10:44:32 51°13.467 2°51.458 22.4097 4.222741 31.310857 -0.965744
2010-06-11 10:45:32 51°13.57 2°51.729 22.4308 4.221686 31.30104 -0.965744
2010-06-11 10:46:32 51°13.673 2°51.998 22.4286 4.221053 31.296889 -0.965744
2010-06-11 10:47:32 51°13.776 2°52.268 22.4385 4.221053 31.296889 -0.965744
2010-06-11 10:48:32 51°13.881 2°52.536 22.4674 4.222741 31.310857 -1.000568
2010-06-11 10:49:32 51°13.985 2°52.807 22.4618 4.22253 31.310199 -0.93092
2010-06-11 10:50:32 51°14.089 2°53.076 22.0451 4.221159 31.298849 -0.896096
2010-06-11 10:51:32 51°14.195 2°53.346 22.11 4.221475 31.300924 -0.93092
2010-06-11 10:52:32 51°14.301 2°53.617 22.1261 4.222847 31.313362 -0.896096
2010-06-11 10:53:32 51°14.407 2°53.884 22.2087 4.221264 31.299722 -0.896096
2010-06-11 10:54:32 51°14.515 2°54.149 22.1749 4.221159 31.301023 -0.93092
2010-06-11 10:55:32 51°14.621 2°54.416 22.2458 4.22137 31.302226 -0.93092
2010-06-11 10:56:32 51°14.659 2°54.712 22.2317 4.221159 31.30048 -0.93092
2010-06-11 10:57:32 51°14.574 2°54.97 22.2863 4.22137 31.302226 -0.93092
2010-06-11 10:58:32 51°14.422 2°55.147 22.2493 4.221159 31.301023 -0.93092
2010-06-11 10:59:32 51°14.257 2°55.295 22.2436 4.221264 31.301353 -0.965744
2010-06-11 11:00:32 51°14.122 2°55.408 22.2764 4.221475 31.302012 -0.93092
2010-06-11 11:01:32 51°13.989 2°55.503 22.2486 4.221264 31.301896 -0.93092
2010-06-11 11:02:32 51°13.878 2°55.585 22.2448 4.221264 31.303527 -0.965744
2010-06-11 11:03:32 51°13.774 2°55.679 22.2473 4.221475 31.305274 -0.965744
2010-06-11 11:04:32 51°13.71 2°55.795 22.2489 4.221475 31.305274 -0.965744
2010-06-11 11:05:32 51°13.681 2°55.895 22.2539 4.221475 31.30473 -0.965744
2010-06-11 11:06:32 51°13.664 2°55.952 22.2642 4.221581 31.30669 -0.965744
2010-06-11 11:07:36 51°13.661 2°55.96 22.2681 4.221581 31.30669 -0.93092
2010-06-11 11:08:36 51°13.662 2°55.96 22.269 4.221581 31.30669 -0.965744